PRIVATE WETTERSTATION BILLIGHEIM-ALLFELD                       ZURCK
Wetterdaten: Montag, 14.08.2017
Datum Zeit Temp. A. Temp. A. min Temp. A. max Feuchte A. Luftdruck Regen Wind Richtung Richtung Sonnenschein ET Solar Taupunkt Windchill Windben Empfang
14.08.2017 00:00 15,1 C 15,1 C 15,2 C 89 % 1020,3 hPa 0,0 l/m 0,0 km/h (0 Bft) NW 306 0 min 0,000 mm 0 W/m 13,3 C 15,1 C 0,0 km/h (0 Bft) 100 %
14.08.2017 00:10 15,1 C 15,1 C 15,1 C 89 % 1020,1 hPa 0,0 l/m 0,0 km/h (0 Bft) NW 306 0 min 0,000 mm 0 W/m 13,3 C 15,1 C 0,0 km/h (0 Bft) 100 %
14.08.2017 00:20 15,1 C 15,1 C 15,1 C 89 % 1020,1 hPa 0,0 l/m 0,0 km/h (0 Bft) NW 306 0 min 0,000 mm 0 W/m 13,3 C 15,1 C 0,0 km/h (0 Bft) 100 %
14.08.2017 00:30 14,8 C 14,8 C 15,1 C 89 % 1020,1 hPa 0,0 l/m 0,0 km/h (0 Bft) NW 306 0 min 0,000 mm 0 W/m 13,0 C 14,8 C 0,0 km/h (0 Bft) 100 %
14.08.2017 00:40 14,6 C 14,6 C 14,8 C 89 % 1020,1 hPa 0,0 l/m 0,0 km/h (0 Bft) NW 306 0 min 0,000 mm 0 W/m 12,8 C 14,6 C 0,0 km/h (0 Bft) 100 %
14.08.2017 00:50 14,5 C 14,5 C 14,6 C 89 % 1020,0 hPa 0,0 l/m 0,0 km/h (0 Bft) NW 306 0 min 0,000 mm 0 W/m 12,7 C 14,5 C 0,0 km/h (0 Bft) 100 %
14.08.2017 01:00 14,4 C 14,4 C 14,5 C 89 % 1020,0 hPa 0,0 l/m 0,0 km/h (0 Bft) NW 306 0 min 0,000 mm 0 W/m 12,6 C 14,4 C 0,0 km/h (0 Bft) 100 %
14.08.2017 01:10 14,3 C 14,3 C 14,4 C 89 % 1020,0 hPa 0,0 l/m 0,0 km/h (0 Bft) NW 306 0 min 0,000 mm 0 W/m 12,5 C 14,3 C 0,0 km/h (0 Bft) 100 %
14.08.2017 01:20 14,2 C 14,2 C 14,3 C 89 % 1019,9 hPa 0,0 l/m 0,0 km/h (0 Bft) NW 306 0 min 0,000 mm 0 W/m 12,4 C 14,2 C 0,0 km/h (0 Bft) 100 %
14.08.2017 01:30 14,3 C 14,2 C 14,3 C 89 % 1019,9 hPa 0,0 l/m 0,0 km/h (0 Bft) NW 306 0 min 0,000 mm 0 W/m 12,5 C 14,3 C 0,0 km/h (0 Bft) 100 %
14.08.2017 01:40 14,3 C 14,3 C 14,3 C 89 % 1019,9 hPa 0,0 l/m 0,0 km/h (0 Bft) NW 306 0 min 0,000 mm 0 W/m 12,5 C 14,3 C 0,0 km/h (0 Bft) 100 %
14.08.2017 01:50 14,2 C 14,2 C 14,3 C 89 % 1019,9 hPa 0,0 l/m 0,0 km/h (0 Bft) NW 306 0 min 0,000 mm 0 W/m 12,4 C 14,2 C 0,0 km/h (0 Bft) 100 %
14.08.2017 02:00 14,2 C 14,2 C 14,2 C 89 % 1019,9 hPa 0,0 l/m 0,0 km/h (0 Bft) NW 306 0 min 0,000 mm 0 W/m 12,4 C 14,2 C 0,0 km/h (0 Bft) 99 %
14.08.2017 02:10 14,2 C 14,2 C 14,2 C 89 % 1019,8 hPa 0,0 l/m 0,0 km/h (0 Bft) NW 306 0 min 0,000 mm 0 W/m 12,4 C 14,2 C 0,0 km/h (0 Bft) 100 %
14.08.2017 02:20 14,2 C 14,2 C 14,2 C 89 % 1019,8 hPa 0,0 l/m 0,0 km/h (0 Bft) NW 306 0 min 0,000 mm 0 W/m 12,4 C 14,2 C 0,0 km/h (0 Bft) 100 %
14.08.2017 02:30 14,2 C 14,2 C 14,2 C 89 % 1019,7 hPa 0,0 l/m 0,0 km/h (0 Bft) NW 306 0 min 0,000 mm 0 W/m 12,4 C 14,2 C 0,0 km/h (0 Bft) 100 %
14.08.2017 02:40 14,1 C 14,1 C 14,2 C 89 % 1019,7 hPa 0,0 l/m 0,0 km/h (0 Bft) NW 306 0 min 0,000 mm 0 W/m 12,3 C 14,1 C 0,0 km/h (0 Bft) 100 %
14.08.2017 02:50 14,1 C 14,1 C 14,2 C 89 % 1019,7 hPa 0,0 l/m 0,0 km/h (0 Bft) NW 306 0 min 0,000 mm 0 W/m 12,3 C 14,1 C 0,0 km/h (0 Bft) 100 %
14.08.2017 03:00 14,1 C 14,1 C 14,1 C 89 % 1019,7 hPa 0,0 l/m 0,0 km/h (0 Bft) NW 306 0 min 0,000 mm 0 W/m 12,3 C 14,1 C 0,0 km/h (0 Bft) 100 %
14.08.2017 03:10 14,0 C 14,0 C 14,1 C 89 % 1019,6 hPa 0,0 l/m 0,0 km/h (0 Bft) NW 317 0 min 0,000 mm 0 W/m 12,2 C 14,0 C 0,0 km/h (0 Bft) 100 %
14.08.2017 03:20 14,0 C 14,0 C 14,0 C 89 % 1019,7 hPa 0,0 l/m 0,0 km/h (0 Bft) NW 317 0 min 0,000 mm 0 W/m 12,2 C 14,0 C 0,0 km/h (0 Bft) 100 %
14.08.2017 03:30 14,0 C 13,9 C 14,0 C 89 % 1019,6 hPa 0,0 l/m 0,0 km/h (0 Bft) NW 317 0 min 0,000 mm 0 W/m 12,2 C 14,0 C 0,0 km/h (0 Bft) 100 %
14.08.2017 03:40 14,0 C 13,9 C 14,0 C 89 % 1019,4 hPa 0,0 l/m 0,0 km/h (0 Bft) NW 317 0 min 0,000 mm 0 W/m 12,2 C 14,0 C 0,0 km/h (0 Bft) 100 %
14.08.2017 03:50 13,9 C 13,9 C 14,0 C 89 % 1019,4 hPa 0,0 l/m 0,0 km/h (0 Bft) NW 317 0 min 0,000 mm 0 W/m 12,1 C 13,9 C 0,0 km/h (0 Bft) 100 %
14.08.2017 04:00 14,0 C 13,9 C 14,0 C 89 % 1019,2 hPa 0,0 l/m 0,0 km/h (0 Bft) NW 317 0 min 0,000 mm 0 W/m 12,2 C 14,0 C 0,0 km/h (0 Bft) 100 %
14.08.2017 04:10 14,0 C 14,0 C 14,0 C 89 % 1019,3 hPa 0,0 l/m 0,0 km/h (0 Bft) NW 317 0 min 0,000 mm 0 W/m 12,2 C 14,0 C 0,0 km/h (0 Bft) 100 %
14.08.2017 04:20 13,8 C 13,8 C 14,0 C 89 % 1019,4 hPa 0,0 l/m 0,0 km/h (0 Bft) NW 317 0 min 0,000 mm 0 W/m 12,0 C 13,8 C 0,0 km/h (0 Bft) 100 %
14.08.2017 04:30 13,8 C 13,8 C 13,9 C 89 % 1019,3 hPa 0,0 l/m 0,0 km/h (0 Bft) NW 317 0 min 0,000 mm 0 W/m 12,0 C 13,8 C 0,0 km/h (0 Bft) 100 %
14.08.2017 04:40 13,9 C 13,8 C 13,9 C 89 % 1019,2 hPa 0,0 l/m 0,0 km/h (0 Bft) NW 317 0 min 0,000 mm 0 W/m 12,1 C 13,9 C 0,0 km/h (0 Bft) 100 %
14.08.2017 04:50 13,9 C 13,9 C 13,9 C 90 % 1019,1 hPa 0,0 l/m 0,0 km/h (0 Bft) NW 317 0 min 0,000 mm 0 W/m 12,3 C 13,9 C 0,0 km/h (0 Bft) 100 %
14.08.2017 05:00 14,0 C 13,9 C 14,0 C 90 % 1019,1 hPa 0,0 l/m 0,0 km/h (0 Bft) NW 324 0 min 0,000 mm 0 W/m 12,4 C 14,0 C 0,0 km/h (0 Bft) 100 %
14.08.2017 05:10 14,0 C 14,0 C 14,0 C 90 % 1019,2 hPa 0,0 l/m 0,0 km/h (0 Bft) NW 324 0 min 0,000 mm 0 W/m 12,4 C 14,0 C 0,0 km/h (0 Bft) 100 %
14.08.2017 05:20 14,1 C 14,0 C 14,1 C 90 % 1019,2 hPa 0,0 l/m 0,0 km/h (0 Bft) NW 324 0 min 0,000 mm 0 W/m 12,5 C 14,1 C 0,0 km/h (0 Bft) 100 %
14.08.2017 05:30 14,2 C 14,1 C 14,2 C 90 % 1019,2 hPa 0,0 l/m 0,0 km/h (0 Bft) NW 324 0 min 0,000 mm 0 W/m 12,6 C 14,2 C 0,0 km/h (0 Bft) 100 %
14.08.2017 05:40 14,2 C 14,2 C 14,2 C 89 % 1019,1 hPa 0,0 l/m 0,0 km/h (0 Bft) NW 324 0 min 0,000 mm 0 W/m 12,4 C 14,2 C 0,0 km/h (0 Bft) 100 %
14.08.2017 05:50 14,4 C 14,2 C 14,4 C 90 % 1019,0 hPa 0,0 l/m 0,0 km/h (0 Bft) N-NW 327 0 min 0,000 mm 0 W/m 12,8 C 14,4 C 0,0 km/h (0 Bft) 100 %
14.08.2017 06:00 14,7 C 14,4 C 14,7 C 90 % 1019,0 hPa 0,0 l/m 0,0 km/h (0 Bft) N-NW 329 0 min 0,000 mm 0 W/m 13,1 C 14,7 C 0,0 km/h (0 Bft) 100 %
14.08.2017 06:10 14,8 C 14,7 C 14,8 C 90 % 1019,1 hPa 0,0 l/m 0,0 km/h (0 Bft) N-NW 329 0 min 0,000 mm 0 W/m 13,2 C 14,8 C 0,0 km/h (0 Bft) 100 %
14.08.2017 06:20 14,7 C 14,7 C 14,8 C 90 % 1019,0 hPa 0,0 l/m 0,0 km/h (0 Bft) N-NW 329 0 min 0,000 mm 0 W/m 13,1 C 14,7 C 0,0 km/h (0 Bft) 100 %
14.08.2017 06:30 14,7 C 14,7 C 14,7 C 90 % 1019,1 hPa 0,0 l/m 0,0 km/h (0 Bft) N-NW 329 0 min 0,000 mm 7 W/m 13,1 C 14,7 C 0,0 km/h (0 Bft) 100 %
14.08.2017 06:40 14,7 C 14,7 C 14,7 C 90 % 1019,1 hPa 0,0 l/m 0,0 km/h (0 Bft) NW 326 0 min 0,000 mm 14 W/m 13,1 C 14,7 C 0,0 km/h (0 Bft) 100 %
14.08.2017 06:50 14,8 C 14,7 C 14,8 C 90 % 1019,1 hPa 0,0 l/m 0,0 km/h (0 Bft) NW 326 0 min 0,000 mm 23 W/m 13,2 C 14,8 C 0,0 km/h (0 Bft) 100 %
14.08.2017 07:00 14,9 C 14,8 C 14,9 C 90 % 1019,0 hPa 0,0 l/m 0,0 km/h (0 Bft) NW 326 0 min 0,000 mm 32 W/m 13,3 C 14,9 C 0,0 km/h (0 Bft) 100 %
14.08.2017 07:10 15,1 C 14,9 C 15,1 C 90 % 1019,2 hPa 0,0 l/m 0,0 km/h (0 Bft) NW 326 0 min 0,000 mm 42 W/m 13,5 C 15,1 C 0,0 km/h (0 Bft) 100 %
14.08.2017 07:20 15,1 C 15,1 C 15,1 C 90 % 1019,2 hPa 0,0 l/m 0,0 km/h (0 Bft) NW 326 0 min 0,000 mm 51 W/m 13,5 C 15,1 C 0,0 km/h (0 Bft) 100 %
14.08.2017 07:30 15,1 C 15,1 C 15,1 C 90 % 1019,1 hPa 0,0 l/m 0,0 km/h (0 Bft) NW 326 0 min 0,000 mm 44 W/m 13,5 C 15,1 C 0,0 km/h (0 Bft) 100 %
14.08.2017 07:40 15,2 C 15,1 C 15,2 C 90 % 1019,2 hPa 0,0 l/m 0,0 km/h (0 Bft) NW 326 0 min 0,000 mm 67 W/m 13,6 C 15,2 C 0,0 km/h (0 Bft) 100 %
14.08.2017 07:50 15,3 C 15,2 C 15,3 C 90 % 1019,2 hPa 0,0 l/m 0,0 km/h (0 Bft) N-NW 327 0 min 0,000 mm 81 W/m 13,7 C 15,3 C 0,0 km/h (0 Bft) 100 %
14.08.2017 08:00 15,6 C 15,3 C 15,6 C 90 % 1019,3 hPa 0,0 l/m 0,0 km/h (0 Bft) N-NW 327 0 min 0,025 mm 100 W/m 14,0 C 15,6 C 0,0 km/h (0 Bft) 100 %
14.08.2017 08:10 15,7 C 15,6 C 15,7 C 90 % 1019,3 hPa 0,0 l/m 0,0 km/h (0 Bft) N-NW 327 0 min 0,000 mm 135 W/m 14,1 C 15,7 C 0,0 km/h (0 Bft) 100 %
14.08.2017 08:20 16,0 C 15,7 C 16,0 C 90 % 1019,3 hPa 0,0 l/m 0,0 km/h (0 Bft) N-NW 327 0 min 0,000 mm 142 W/m 14,4 C 16,0 C 0,0 km/h (0 Bft) 100 %
14.08.2017 08:30 16,2 C 16,0 C 16,2 C 90 % 1019,3 hPa 0,0 l/m 0,0 km/h (0 Bft) N-NW 327 0 min 0,000 mm 139 W/m 14,6 C 16,2 C 0,0 km/h (0 Bft) 100 %
14.08.2017 08:40 16,4 C 16,2 C 16,4 C 90 % 1019,3 hPa 0,0 l/m 0,0 km/h (0 Bft) N-NW 338 0 min 0,000 mm 121 W/m 14,8 C 16,4 C 1,6 km/h (1 Bft) 100 %
14.08.2017 08:50 16,8 C 16,4 C 16,8 C 90 % 1019,2 hPa 0,0 l/m 0,0 km/h (0 Bft) O-SO 118 10 min 0,000 mm 323 W/m 15,1 C 16,8 C 0,0 km/h (0 Bft) 100 %
14.08.2017 09:00 17,4 C 16,8 C 17,4 C 90 % 1019,3 hPa 0,0 l/m 0,0 km/h (0 Bft) SO 124 10 min 0,102 mm 350 W/m 15,7 C 17,4 C 3,2 km/h (1 Bft) 100 %
14.08.2017 09:10 17,9 C 17,4 C 17,9 C 89 % 1019,3 hPa 0,0 l/m 0,1 km/h (0 Bft) O-SO 119 10 min 0,000 mm 394 W/m 16,1 C 17,9 C 4,8 km/h (1 Bft) 100 %
14.08.2017 09:20 18,5 C 17,9 C 18,5 C 89 % 1019,3 hPa 0,0 l/m 0,3 km/h (0 Bft) NO 55 10 min 0,000 mm 438 W/m 16,7 C 18,5 C 6,4 km/h (2 Bft) 100 %
14.08.2017 09:30 19,2 C 18,5 C 19,2 C 89 % 1019,3 hPa 0,0 l/m 0,3 km/h (0 Bft) O-SO 123 10 min 0,000 mm 476 W/m 17,3 C 19,2 C 9,7 km/h (2 Bft) 100 %
14.08.2017 09:40 19,8 C 19,2 C 19,8 C 86 % 1019,2 hPa 0,0 l/m 0,0 km/h (0 Bft) O 93 10 min 0,000 mm 515 W/m 17,4 C 19,8 C 1,6 km/h (1 Bft) 100 %
14.08.2017 09:50 20,5 C 19,8 C 20,5 C 84 % 1019,1 hPa 0,0 l/m 0,0 km/h (0 Bft) O 95 10 min 0,000 mm 555 W/m 17,7 C 20,5 C 0,0 km/h (0 Bft) 100 %
14.08.2017 10:00 21,1 C 20,5 C 21,1 C 83 % 1019,1 hPa 0,0 l/m 0,2 km/h (0 Bft) O-SO 123 10 min 0,254 mm 587 W/m 18,1 C 21,1 C 8,0 km/h (2 Bft) 100 %
14.08.2017 10:10 21,4 C 21,1 C 21,4 C 78 % 1019,1 hPa 0,0 l/m 0,2 km/h (0 Bft) N-NO 26 10 min 0,000 mm 599 W/m 17,4 C 21,4 C 6,4 km/h (2 Bft) 99 %
14.08.2017 10:20 21,9 C 21,4 C 21,9 C 78 % 1019,1 hPa 0,0 l/m 0,5 km/h (0 Bft) O 86 10 min 0,000 mm 663 W/m 17,9 C 21,9 C 6,4 km/h (2 Bft) 100 %
14.08.2017 10:30 22,3 C 21,9 C 22,3 C 75 % 1019,1 hPa 0,0 l/m 1,2 km/h (1 Bft) N-NW 345 10 min 0,000 mm 682 W/m 17,6 C 22,3 C 11,3 km/h (2 Bft) 100 %
14.08.2017 10:40 22,5 C 22,3 C 22,6 C 74 % 1019,0 hPa 0,0 l/m 0,6 km/h (0 Bft) N 355 10 min 0,000 mm 647 W/m 17,6 C 22,5 C 8,0 km/h (2 Bft) 98 %
14.08.2017 10:50 22,8 C 22,5 C 22,8 C 73 % 1019,0 hPa 0,0 l/m 1,3 km/h (1 Bft) SO 125 10 min 0,000 mm 626 W/m 17,7 C 22,8 C 8,0 km/h (2 Bft) 100 %
14.08.2017 11:00 22,7 C 22,7 C 22,8 C 75 % 1019,0 hPa 0,0 l/m 1,3 km/h (1 Bft) S-SO 159 10 min 0,381 mm 628 W/m 18,0 C 22,7 C 8,0 km/h (2 Bft) 100 %
14.08.2017 11:10 22,9 C 22,7 C 22,9 C 72 % 1019,0 hPa 0,0 l/m 1,0 km/h (0 Bft) O-SO 109 10 min 0,000 mm 643 W/m 17,6 C 22,9 C 8,0 km/h (2 Bft) 100 %
14.08.2017 11:20 23,2 C 22,9 C 23,2 C 72 % 1019,0 hPa 0,0 l/m 1,1 km/h (1 Bft) SO 133 10 min 0,000 mm 738 W/m 17,9 C 23,2 C 11,3 km/h (2 Bft) 100 %
14.08.2017 11:30 23,5 C 23,2 C 23,5 C 76 % 1018,9 hPa 0,0 l/m 3,3 km/h (1 Bft) SO 144 10 min 0,000 mm 773 W/m 19,0 C 23,5 C 16,1 km/h (3 Bft) 100 %
14.08.2017 11:40 24,0 C 23,5 C 24,0 C 72 % 1018,9 hPa 0,0 l/m 0,8 km/h (0 Bft) O-SO 121 10 min 0,000 mm 786 W/m 18,6 C 24,0 C 8,0 km/h (2 Bft) 99 %
14.08.2017 11:50 24,1 C 24,0 C 24,1 C 72 % 1018,9 hPa 0,0 l/m 1,1 km/h (1 Bft) O 87 10 min 0,000 mm 608 W/m 18,7 C 24,1 C 9,7 km/h (2 Bft) 100 %
14.08.2017 12:00 24,2 C 24,1 C 24,3 C 71 % 1018,7 hPa 0,0 l/m 1,1 km/h (1 Bft) SO 136 10 min 0,432 mm 691 W/m 18,6 C 24,2 C 9,7 km/h (2 Bft) 100 %
14.08.2017 12:10 24,2 C 24,2 C 24,2 C 70 % 1018,7 hPa 0,0 l/m 3,9 km/h (1 Bft) N 5 10 min 0,000 mm 717 W/m 18,4 C 24,2 C 11,3 km/h (2 Bft) 100 %
14.08.2017 12:20 24,3 C 24,2 C 24,4 C 71 % 1018,7 hPa 0,0 l/m 1,2 km/h (1 Bft) SO 145 10 min 0,000 mm 601 W/m 18,7 C 24,3 C 11,3 km/h (2 Bft) 100 %
14.08.2017 12:30 24,6 C 24,3 C 24,6 C 71 % 1018,7 hPa 0,0 l/m 0,4 km/h (0 Bft) O 91 10 min 0,000 mm 809 W/m 19,0 C 24,6 C 6,4 km/h (2 Bft) 100 %
14.08.2017 12:40 24,6 C 24,6 C 24,7 C 67 % 1018,6 hPa 0,0 l/m 3,3 km/h (1 Bft) SO 144 10 min 0,000 mm 476 W/m 18,1 C 24,6 C 16,1 km/h (3 Bft) 100 %
14.08.2017 12:50 24,4 C 24,4 C 24,6 C 68 % 1018,6 hPa 0,0 l/m 1,1 km/h (1 Bft) O-SO 118 10 min 0,000 mm 779 W/m 18,1 C 24,4 C 11,3 km/h (2 Bft) 100 %
14.08.2017 13:00 24,6 C 24,4 C 24,6 C 67 % 1018,6 hPa 0,0 l/m 1,6 km/h (1 Bft) O-SO 113 10 min 0,432 mm 807 W/m 18,1 C 24,6 C 8,0 km/h (2 Bft) 99 %
14.08.2017 13:10 24,8 C 24,6 C 24,8 C 68 % 1018,4 hPa 0,0 l/m 2,8 km/h (1 Bft) O-SO 108 10 min 0,000 mm 763 W/m 18,5 C 24,8 C 12,9 km/h (3 Bft) 100 %
14.08.2017 13:20 25,2 C 24,8 C 25,2 C 66 % 1018,4 hPa 0,0 l/m 1,5 km/h (1 Bft) SO 133 10 min 0,000 mm 884 W/m 18,4 C 25,2 C 11,3 km/h (2 Bft) 100 %
14.08.2017 13:30 25,4 C 25,2 C 25,4 C 66 % 1018,2 hPa 0,0 l/m 1,2 km/h (1 Bft) N 9 10 min 0,000 mm 814 W/m 18,6 C 25,4 C 12,9 km/h (3 Bft) 100 %
14.08.2017 13:40 25,5 C 25,4 C 25,6 C 63 % 1018,2 hPa 0,0 l/m 1,9 km/h (1 Bft) O-SO 119 10 min 0,000 mm 881 W/m 17,9 C 25,5 C 16,1 km/h (3 Bft) 100 %
14.08.2017 13:50 25,3 C 25,3 C 25,5 C 66 % 1018,0 hPa 0,0 l/m 0,8 km/h (0 Bft) O 92 10 min 0,000 mm 422 W/m 18,5 C 25,3 C 12,9 km/h (3 Bft) 100 %
14.08.2017 14:00 25,4 C 25,2 C 25,4 C 65 % 1018,0 hPa 0,0 l/m 2,1 km/h (1 Bft) N-NW 333 10 min 0,457 mm 944 W/m 18,3 C 25,4 C 9,7 km/h (2 Bft) 100 %
14.08.2017 14:10 25,6 C 25,4 C 25,7 C 63 % 1017,9 hPa 0,0 l/m 2,5 km/h (1 Bft) SO 126 10 min 0,000 mm 606 W/m 18,0 C 25,6 C 14,5 km/h (3 Bft) 100 %
14.08.2017 14:20 25,7 C 25,6 C 25,7 C 67 % 1017,7 hPa 0,0 l/m 0,4 km/h (0 Bft) S-SW 194 10 min 0,000 mm 693 W/m 19,1 C 25,7 C 9,7 km/h (2 Bft) 100 %
14.08.2017 14:30 26,2 C 25,7 C 26,2 C 62 % 1017,7 hPa 0,0 l/m 3,1 km/h (1 Bft) SO 134 10 min 0,000 mm 967 W/m 18,3 C 26,2 C 11,3 km/h (2 Bft) 100 %
14.08.2017 14:40 26,0 C 26,0 C 26,2 C 63 % 1017,7 hPa 0,0 l/m 2,8 km/h (1 Bft) S-SO 153 10 min 0,000 mm 830 W/m 18,4 C 26,0 C 12,9 km/h (3 Bft) 100 %
14.08.2017 14:50 26,0 C 25,9 C 26,0 C 66 % 1017,5 hPa 0,0 l/m 2,4 km/h (1 Bft) O 94 10 min 0,000 mm 830 W/m 19,1 C 26,0 C 11,3 km/h (2 Bft) 100 %
14.08.2017 15:00 26,3 C 26,0 C 26,3 C 61 % 1017,5 hPa 0,0 l/m 0,4 km/h (0 Bft) SO 142 10 min 0,482 mm 659 W/m 18,2 C 26,3 C 6,4 km/h (2 Bft) 100 %
14.08.2017 15:10 26,0 C 26,0 C 26,3 C 62 % 1017,5 hPa 0,0 l/m 3,2 km/h (1 Bft) O-SO 115 10 min 0,000 mm 854 W/m 18,1 C 26,0 C 16,1 km/h (3 Bft) 100 %
14.08.2017 15:20 26,1 C 26,0 C 26,1 C 64 % 1017,5 hPa 0,0 l/m 1,6 km/h (1 Bft) O-SO 123 10 min 0,000 mm 230 W/m 18,7 C 26,1 C 9,7 km/h (2 Bft) 100 %
14.08.2017 15:30 25,8 C 25,8 C 26,1 C 60 % 1017,4 hPa 0,0 l/m 0,3 km/h (0 Bft) O-SO 107 10 min 0,000 mm 817 W/m 17,4 C 25,8 C 9,7 km/h (2 Bft) 100 %
14.08.2017 15:40 26,1 C 25,8 C 26,1 C 61 % 1017,2 hPa 0,0 l/m 0,8 km/h (0 Bft) SO 138 10 min 0,000 mm 786 W/m 18,0 C 26,1 C 9,7 km/h (2 Bft) 100 %
14.08.2017 15:50 26,6 C 26,1 C 26,6 C 61 % 1017,0 hPa 0,0 l/m 1,2 km/h (1 Bft) N-NW 339 10 min 0,000 mm 766 W/m 18,4 C 26,6 C 9,7 km/h (2 Bft) 100 %
14.08.2017 16:00 26,6 C 26,6 C 26,7 C 60 % 1016,9 hPa 0,0 l/m 0,8 km/h (0 Bft) O-SO 123 10 min 0,381 mm 229 W/m 18,2 C 26,6 C 9,7 km/h (2 Bft) 100 %
14.08.2017 16:10 26,3 C 26,3 C 26,6 C 63 % 1017,0 hPa 0,0 l/m 0,2 km/h (0 Bft) SO 134 10 min 0,000 mm 163 W/m 18,7 C 26,3 C 6,4 km/h (2 Bft) 100 %
14.08.2017 16:20 26,2 C 26,1 C 26,3 C 64 % 1016,8 hPa 0,0 l/m 0,2 km/h (0 Bft) N-NO 19 10 min 0,000 mm 715 W/m 18,8 C 26,2 C 4,8 km/h (1 Bft) 100 %
14.08.2017 16:30 26,5 C 26,2 C 26,5 C 56 % 1016,7 hPa 0,0 l/m 3,5 km/h (1 Bft) SO 140 10 min 0,000 mm 603 W/m 17,0 C 26,5 C 14,5 km/h (3 Bft) 100 %
14.08.2017 16:40 26,4 C 26,4 C 26,5 C 55 % 1016,6 hPa 0,0 l/m 1,8 km/h (1 Bft) O-SO 119 10 min 0,000 mm 626 W/m 16,6 C 26,4 C 17,7 km/h (3 Bft) 100 %
14.08.2017 16:50 26,5 C 26,4 C 26,5 C 60 % 1016,6 hPa 0,0 l/m 0,6 km/h (0 Bft) SO 144 10 min 0,000 mm 276 W/m 18,1 C 26,5 C 6,4 km/h (2 Bft) 100 %
14.08.2017 17:00 26,6 C 26,5 C 26,6 C 58 % 1016,7 hPa 0,0 l/m 0,6 km/h (0 Bft) SO 125 0 min 0,305 mm 79 W/m 17,6 C 26,6 C 6,4 km/h (2 Bft) 100 %
14.08.2017 17:10 26,7 C 26,6 C 26,7 C 58 % 1016,4 hPa 0,0 l/m 0,1 km/h (0 Bft) O 101 0 min 0,000 mm 69 W/m 17,7 C 26,7 C 4,8 km/h (1 Bft) 100 %
14.08.2017 17:20 26,6 C 26,6 C 26,7 C 60 % 1016,4 hPa 0,0 l/m 0,2 km/h (0 Bft) SO 126 0 min 0,000 mm 62 W/m 18,2 C 26,6 C 8,0 km/h (2 Bft) 100 %
14.08.2017 17:30 26,6 C 26,6 C 26,6 C 57 % 1016,3 hPa 0,0 l/m 1,6 km/h (1 Bft) SO 139 0 min 0,000 mm 70 W/m 17,4 C 26,6 C 11,3 km/h (2 Bft) 100 %
14.08.2017 17:40 26,6 C 26,5 C 26,6 C 56 % 1016,2 hPa 0,0 l/m 2,1 km/h (1 Bft) SO 132 0 min 0,000 mm 58 W/m 17,1 C 26,6 C 16,1 km/h (3 Bft) 100 %
14.08.2017 17:50 26,6 C 26,5 C 26,6 C 57 % 1016,3 hPa 0,0 l/m 1,1 km/h (1 Bft) O-SO 103 0 min 0,000 mm 60 W/m 17,4 C 26,6 C 9,7 km/h (2 Bft) 100 %
14.08.2017 18:00 26,4 C 26,4 C 26,6 C 58 % 1016,2 hPa 0,0 l/m 0,7 km/h (0 Bft) O 96 0 min 0,051 mm 58 W/m 17,5 C 26,4 C 6,4 km/h (2 Bft) 100 %
14.08.2017 18:10 26,3 C 26,3 C 26,4 C 59 % 1016,1 hPa 0,0 l/m 0,0 km/h (0 Bft) NO 51 0 min 0,000 mm 51 W/m 17,6 C 26,3 C 0,0 km/h (0 Bft) 100 %
14.08.2017 18:20 26,1 C 26,1 C 26,3 C 60 % 1016,1 hPa 0,0 l/m 0,1 km/h (0 Bft) O-SO 107 0 min 0,000 mm 49 W/m 17,7 C 26,1 C 3,2 km/h (1 Bft) 100 %
14.08.2017 18:30 26,0 C 26,0 C 26,1 C 60 % 1016,0 hPa 0,0 l/m 0,2 km/h (0 Bft) SO 128 0 min 0,000 mm 47 W/m 17,6 C 26,0 C 8,0 km/h (2 Bft) 100 %
14.08.2017 18:40 25,9 C 25,9 C 26,0 C 61 % 1015,9 hPa 0,0 l/m 0,4 km/h (0 Bft) SO 135 0 min 0,000 mm 49 W/m 17,8 C 25,9 C 6,4 km/h (2 Bft) 100 %
14.08.2017 18:50 25,8 C 25,8 C 25,9 C 61 % 1015,8 hPa 0,0 l/m 0,0 km/h (0 Bft) SO 128 0 min 0,000 mm 53 W/m 17,7 C 25,8 C 3,2 km/h (1 Bft) 100 %
14.08.2017 19:00 25,7 C 25,7 C 25,8 C 61 % 1015,9 hPa 0,0 l/m 0,1 km/h (0 Bft) SO 136 0 min 0,051 mm 49 W/m 17,6 C 25,7 C 6,4 km/h (2 Bft) 99 %
14.08.2017 19:10 25,4 C 25,4 C 25,7 C 63 % 1015,7 hPa 0,0 l/m 0,0 km/h (0 Bft) O-SO 117 0 min 0,000 mm 42 W/m 17,8 C 25,4 C 1,6 km/h (1 Bft) 100 %
14.08.2017 19:20 25,2 C 25,2 C 25,4 C 63 % 1015,7 hPa 0,0 l/m 0,0 km/h (0 Bft) O-SO 110 0 min 0,000 mm 42 W/m 17,6 C 25,2 C 0,0 km/h (0 Bft) 100 %
14.08.2017 19:30 24,9 C 24,9 C 25,2 C 65 % 1015,7 hPa 0,0 l/m 0,0 km/h (0 Bft) O-SO 103 0 min 0,000 mm 40 W/m 17,9 C 24,9 C 0,0 km/h (0 Bft) 91 %
14.08.2017 19:40 24,8 C 24,8 C 24,9 C 64 % 1015,6 hPa 0,0 l/m 0,1 km/h (0 Bft) O-SO 105 0 min 0,000 mm 33 W/m 17,5 C 24,8 C 3,2 km/h (1 Bft) 100 %
14.08.2017 19:50 24,6 C 24,6 C 24,8 C 65 % 1015,6 hPa 0,0 l/m 0,0 km/h (0 Bft) O 98 0 min 0,000 mm 26 W/m 17,6 C 24,6 C 1,6 km/h (1 Bft) 100 %
14.08.2017 20:00 24,3 C 24,3 C 24,6 C 65 % 1015,5 hPa 0,0 l/m 0,0 km/h (0 Bft) O 100 0 min 0,025 mm 25 W/m 17,3 C 24,3 C 1,6 km/h (1 Bft) 100 %
14.08.2017 20:10 24,1 C 24,1 C 24,3 C 66 % 1015,5 hPa 0,0 l/m 0,1 km/h (0 Bft) O-NO 74 0 min 0,000 mm 21 W/m 17,3 C 24,1 C 3,2 km/h (1 Bft) 100 %
14.08.2017 20:20 23,8 C 23,8 C 24,1 C 66 % 1015,5 hPa 0,0 l/m 0,0 km/h (0 Bft) O 84 0 min 0,000 mm 14 W/m 17,1 C 23,8 C 0,0 km/h (0 Bft) 100 %
14.08.2017 20:30 23,5 C 23,5 C 23,8 C 65 % 1015,6 hPa 0,0 l/m 0,0 km/h (0 Bft) O 84 0 min 0,000 mm 9 W/m 16,5 C 23,5 C 0,0 km/h (0 Bft) 100 %
14.08.2017 20:40 23,3 C 23,3 C 23,5 C 67 % 1015,6 hPa 0,0 l/m 0,0 km/h (0 Bft) O 83 0 min 0,000 mm 0 W/m 16,8 C 23,3 C 0,0 km/h (0 Bft) 100 %
14.08.2017 20:50 23,0 C 23,0 C 23,3 C 68 % 1015,7 hPa 0,0 l/m 0,0 km/h (0 Bft) O-NO 69 0 min 0,000 mm 0 W/m 16,8 C 23,0 C 1,6 km/h (1 Bft) 100 %
14.08.2017 21:00 22,7 C 22,7 C 23,0 C 69 % 1015,8 hPa 0,0 l/m 0,0 km/h (0 Bft) N-NO 25 0 min 0,026 mm 0 W/m 16,7 C 22,7 C 0,0 km/h (0 Bft) 100 %
14.08.2017 21:10 22,6 C 22,6 C 22,7 C 70 % 1015,9 hPa 0,0 l/m 0,1 km/h (0 Bft) N-NO 33 0 min 0,000 mm 0 W/m 16,8 C 22,6 C 3,2 km/h (1 Bft) 100 %
14.08.2017 21:20 22,3 C 22,3 C 22,6 C 70 % 1015,9 hPa 0,0 l/m 0,0 km/h (0 Bft) NO 42 0 min 0,000 mm 0 W/m 16,6 C 22,3 C 1,6 km/h (1 Bft) 100 %
14.08.2017 21:30 22,2 C 22,2 C 22,3 C 71 % 1015,9 hPa 0,0 l/m 0,0 km/h (0 Bft) O-NO 69 0 min 0,000 mm 0 W/m 16,7 C 22,2 C 0,0 km/h (0 Bft) 100 %
14.08.2017 21:40 21,9 C 21,9 C 22,2 C 72 % 1015,9 hPa 0,0 l/m 0,0 km/h (0 Bft) O-NO 67 0 min 0,000 mm 0 W/m 16,6 C 21,9 C 0,0 km/h (0 Bft) 100 %
14.08.2017 21:50 21,7 C 21,7 C 21,9 C 74 % 1015,8 hPa 0,0 l/m 0,0 km/h (0 Bft) O 89 0 min 0,000 mm 0 W/m 16,9 C 21,7 C 1,6 km/h (1 Bft) 100 %
14.08.2017 22:00 21,4 C 21,4 C 21,7 C 76 % 1015,9 hPa 0,0 l/m 0,0 km/h (0 Bft) O 86 0 min 0,025 mm 0 W/m 17,0 C 21,4 C 0,0 km/h (0 Bft) 100 %
14.08.2017 22:10 21,0 C 21,0 C 21,4 C 78 % 1015,9 hPa 0,0 l/m 0,0 km/h (0 Bft) O 84 0 min 0,000 mm 0 W/m 17,0 C 21,0 C 0,0 km/h (0 Bft) 100 %
14.08.2017 22:20 20,4 C 20,4 C 21,0 C 80 % 1015,9 hPa 0,0 l/m 0,0 km/h (0 Bft) N-NO 24 0 min 0,000 mm 0 W/m 16,8 C 20,4 C 1,6 km/h (1 Bft) 100 %
14.08.2017 22:30 19,9 C 19,9 C 20,4 C 82 % 1015,9 hPa 0,0 l/m 0,0 km/h (0 Bft) N-NO 24 0 min 0,000 mm 0 W/m 16,7 C 19,9 C 0,0 km/h (0 Bft) 100 %
14.08.2017 22:40 19,5 C 19,5 C 19,9 C 83 % 1015,9 hPa 0,0 l/m 1,0 km/h (0 Bft) N 360 0 min 0,000 mm 0 W/m 16,5 C 19,5 C 4,8 km/h (1 Bft) 100 %
14.08.2017 22:50 19,2 C 19,2 C 19,5 C 85 % 1015,9 hPa 0,0 l/m 0,0 km/h (0 Bft) N 355 0 min 0,000 mm 0 W/m 16,6 C 19,2 C 1,6 km/h (1 Bft) 100 %
14.08.2017 23:00 18,9 C 18,9 C 19,2 C 85 % 1015,9 hPa 0,0 l/m 0,0 km/h (0 Bft) N 355 0 min 0,025 mm 0 W/m 16,3 C 18,9 C 1,6 km/h (1 Bft) 100 %
14.08.2017 23:10 18,6 C 18,6 C 18,9 C 86 % 1015,9 hPa 0,0 l/m 0,0 km/h (0 Bft) N 355 0 min 0,000 mm 0 W/m 16,2 C 18,6 C 1,6 km/h (1 Bft) 100 %
14.08.2017 23:20 18,4 C 18,4 C 18,6 C 86 % 1015,9 hPa 0,0 l/m 0,2 km/h (0 Bft) N 355 0 min 0,000 mm 0 W/m 16,0 C 18,4 C 4,8 km/h (1 Bft) 100 %
14.08.2017 23:30 18,3 C 18,3 C 18,4 C 86 % 1016,0 hPa 0,0 l/m 0,0 km/h (0 Bft) N 355 0 min 0,000 mm 0 W/m 15,9 C 18,3 C 0,0 km/h (0 Bft) 100 %
14.08.2017 23:40 18,2 C 18,2 C 18,3 C 87 % 1015,9 hPa 0,0 l/m 0,0 km/h (0 Bft) N 355 0 min 0,000 mm 0 W/m 16,0 C 18,2 C 0,0 km/h (0 Bft) 100 %
14.08.2017 23:50 18,1 C 18,1 C 18,2 C 87 % 1016,0 hPa 0,0 l/m 0,0 km/h (0 Bft) N 355 0 min 0,000 mm 0 W/m 15,9 C 18,1 C 1,6 km/h (1 Bft) 100 %
_ Min-Zeit 04:20 04:20 04:30 16:40 20:00 - 00:00 - - - - - 04:20 04:20 00:00 19:30
Minimum _ 13,8 C 13,8 C 13,9 C 55 % 1015,5 hPa - 0,0 km/h (0 Bft) - - - - - 12,0 C 13,8 C 0,0 km/h (0 Bft) 91 %
_ Max-Zeit 16:00 16:00 16:00 04:50 00:00 00:00 12:10 - - 08:50 15:00 14:30 14:50 17:10 16:40 00:00
Maximum _ 26,7 C 26,6 C 26,7 C 90 % 1020,3 hPa 0,0 l/m 3,9 km/h
N (1 Bft)
- - 10 min 0,482 mm 967 W/m 19,1 C 26,7 C 17,7 km/h
SO (3 Bft)
100 %
Durchschnitt _ 20,2 C 20,1 C 20,3 C 77 % 1018,0 hPa #0,0 l/m 0,5 km/h (0 Bft) SO - #8:10 h #3,454 mm 391 W/m 15,8 C 20,2 C 4,1 km/h (1 Bft) 100 %
PRIVATE WETTERSTATION BILLIGHEIM-ALLFELD - www.neckar-odenwald-wetter.de - Holger Sonntag